sensor_id;sensor_type;location;lat;lon;timestamp;P1;durP1;ratioP1;P2;durP2;ratioP2
60239;SDS011;46102;39.012;-7.064;2022-08-23T00:01:25;9.80;;;4.53;;
60239;SDS011;46102;39.012;-7.064;2022-08-23T00:03:27;6.60;;;4.63;;
60239;SDS011;46102;39.012;-7.064;2022-08-23T00:05:30;6.17;;;4.40;;
60239;SDS011;46102;39.012;-7.064;2022-08-23T00:07:31;6.95;;;4.72;;
60239;SDS011;46102;39.012;-7.064;2022-08-23T00:09:32;6.43;;;5.40;;
60239;SDS011;46102;39.012;-7.064;2022-08-23T00:11:35;7.97;;;5.38;;
60239;SDS011;46102;39.012;-7.064;2022-08-23T00:13:44;10.40;;;5.00;;
60239;SDS011;46102;39.012;-7.064;2022-08-23T00:15:45;11.40;;;5.63;;
60239;SDS011;46102;39.012;-7.064;2022-08-23T00:17:46;11.40;;;5.82;;
60239;SDS011;46102;39.012;-7.064;2022-08-23T00:19:47;10.25;;;5.40;;
60239;SDS011;46102;39.012;-7.064;2022-08-23T00:21:48;7.97;;;5.63;;
60239;SDS011;46102;39.012;-7.064;2022-08-23T00:23:50;13.90;;;7.28;;
60239;SDS011;46102;39.012;-7.064;2022-08-23T00:25:51;8.63;;;5.55;;
60239;SDS011;46102;39.012;-7.064;2022-08-23T00:27:52;6.25;;;5.70;;
60239;SDS011;46102;39.012;-7.064;2022-08-23T00:29:53;13.35;;;6.43;;
60239;SDS011;46102;39.012;-7.064;2022-08-23T00:31:55;8.40;;;6.10;;
60239;SDS011;46102;39.012;-7.064;2022-08-23T00:33:56;12.00;;;6.13;;
60239;SDS011;46102;39.012;-7.064;2022-08-23T00:35:57;11.15;;;7.40;;
60239;SDS011;46102;39.012;-7.064;2022-08-23T00:37:57;12.70;;;6.85;;
60239;SDS011;46102;39.012;-7.064;2022-08-23T00:39:59;9.57;;;5.45;;
60239;SDS011;46102;39.012;-7.064;2022-08-23T00:42:04;12.27;;;6.13;;
60239;SDS011;46102;39.012;-7.064;2022-08-23T00:44:33;13.90;;;6.50;;
60239;SDS011;46102;39.012;-7.064;2022-08-23T00:46:53;9.18;;;5.65;;
60239;SDS011;46102;39.012;-7.064;2022-08-23T00:49:15;9.18;;;6.00;;
60239;SDS011;46102;39.012;-7.064;2022-08-23T00:51:21;11.13;;;6.22;;
60239;SDS011;46102;39.012;-7.064;2022-08-23T00:53:36;9.32;;;5.75;;
60239;SDS011;46102;39.012;-7.064;2022-08-23T00:55:41;11.73;;;5.30;;
60239;SDS011;46102;39.012;-7.064;2022-08-23T00:57:45;8.38;;;6.03;;
60239;SDS011;46102;39.012;-7.064;2022-08-23T00:59:46;9.25;;;5.50;;
60239;SDS011;46102;39.012;-7.064;2022-08-23T01:01:47;11.32;;;6.85;;
60239;SDS011;46102;39.012;-7.064;2022-08-23T01:03:49;7.68;;;5.88;;
60239;SDS011;46102;39.012;-7.064;2022-08-23T01:06:05;9.38;;;5.95;;
60239;SDS011;46102;39.012;-7.064;2022-08-23T01:08:10;10.18;;;5.88;;
60239;SDS011;46102;39.012;-7.064;2022-08-23T01:10:15;9.68;;;6.18;;
60239;SDS011;46102;39.012;-7.064;2022-08-23T01:12:23;9.30;;;5.50;;
60239;SDS011;46102;39.012;-7.064;2022-08-23T01:14:32;11.32;;;5.90;;
60239;SDS011;46102;39.012;-7.064;2022-08-23T01:18:47;13.95;;;5.55;;
60239;SDS011;46102;39.012;-7.064;2022-08-23T01:25:16;8.40;;;5.68;;
60239;SDS011;46102;39.012;-7.064;2022-08-23T01:27:21;8.73;;;5.72;;
60239;SDS011;46102;39.012;-7.064;2022-08-23T01:29:23;19.05;;;6.15;;
60239;SDS011;46102;39.012;-7.064;2022-08-23T01:31:23;13.05;;;5.28;;
60239;SDS011;46102;39.012;-7.064;2022-08-23T01:33:24;8.95;;;5.85;;
60239;SDS011;46102;39.012;-7.064;2022-08-23T01:35:30;11.38;;;5.72;;
60239;SDS011;46102;39.012;-7.064;2022-08-23T01:37:37;13.25;;;6.05;;
60239;SDS011;46102;39.012;-7.064;2022-08-23T01:39:38;17.35;;;6.40;;
60239;SDS011;46102;39.012;-7.064;2022-08-23T01:41:40;8.98;;;5.50;;
60239;SDS011;46102;39.012;-7.064;2022-08-23T01:43:42;6.28;;;5.60;;
60239;SDS011;46102;39.012;-7.064;2022-08-23T01:45:43;9.40;;;5.72;;
60239;SDS011;46102;39.012;-7.064;2022-08-23T01:47:45;7.07;;;5.35;;
60239;SDS011;46102;39.012;-7.064;2022-08-23T01:49:47;8.50;;;6.43;;
60239;SDS011;46102;39.012;-7.064;2022-08-23T01:51:47;10.68;;;6.90;;
60239;SDS011;46102;39.012;-7.064;2022-08-23T01:53:48;8.07;;;6.50;;
60239;SDS011;46102;39.012;-7.064;2022-08-23T01:55:49;8.77;;;6.78;;
60239;SDS011;46102;39.012;-7.064;2022-08-23T01:57:54;8.60;;;6.82;;
60239;SDS011;46102;39.012;-7.064;2022-08-23T02:01:58;9.48;;;7.10;;
60239;SDS011;46102;39.012;-7.064;2022-08-23T02:03:59;10.98;;;6.72;;
60239;SDS011;46102;39.012;-7.064;2022-08-23T02:06:01;11.73;;;8.60;;
60239;SDS011;46102;39.012;-7.064;2022-08-23T02:08:03;15.70;;;6.07;;
60239;SDS011;46102;39.012;-7.064;2022-08-23T02:10:26;10.05;;;5.80;;
60239;SDS011;46102;39.012;-7.064;2022-08-23T02:12:28;16.63;;;6.55;;
60239;SDS011;46102;39.012;-7.064;2022-08-23T02:14:38;9.85;;;6.13;;
60239;SDS011;46102;39.012;-7.064;2022-08-23T02:16:50;9.68;;;6.28;;
60239;SDS011;46102;39.012;-7.064;2022-08-23T02:20:54;9.40;;;6.05;;
60239;SDS011;46102;39.012;-7.064;2022-08-23T02:22:55;7.03;;;5.43;;
60239;SDS011;46102;39.012;-7.064;2022-08-23T02:24:56;8.90;;;6.18;;
60239;SDS011;46102;39.012;-7.064;2022-08-23T02:26:59;11.60;;;6.50;;
60239;SDS011;46102;39.012;-7.064;2022-08-23T02:29:02;10.77;;;6.75;;
60239;SDS011;46102;39.012;-7.064;2022-08-23T02:31:04;7.07;;;6.38;;
60239;SDS011;46102;39.012;-7.064;2022-08-23T02:33:06;16.25;;;7.63;;
60239;SDS011;46102;39.012;-7.064;2022-08-23T02:35:07;8.65;;;6.70;;
60239;SDS011;46102;39.012;-7.064;2022-08-23T02:37:09;12.50;;;7.97;;
60239;SDS011;46102;39.012;-7.064;2022-08-23T02:39:14;14.27;;;8.35;;
60239;SDS011;46102;39.012;-7.064;2022-08-23T02:41:16;11.38;;;7.47;;
60239;SDS011;46102;39.012;-7.064;2022-08-23T02:43:18;13.40;;;8.75;;
60239;SDS011;46102;39.012;-7.064;2022-08-23T02:45:19;9.88;;;8.77;;
60239;SDS011;46102;39.012;-7.064;2022-08-23T02:47:21;16.75;;;9.50;;
60239;SDS011;46102;39.012;-7.064;2022-08-23T02:49:36;14.95;;;8.55;;
60239;SDS011;46102;39.012;-7.064;2022-08-23T02:51:38;13.35;;;9.05;;
60239;SDS011;46102;39.012;-7.064;2022-08-23T02:53:39;11.98;;;7.95;;
60239;SDS011;46102;39.012;-7.064;2022-08-23T02:57:45;9.27;;;7.88;;
60239;SDS011;46102;39.012;-7.064;2022-08-23T02:59:47;11.88;;;7.78;;
60239;SDS011;46102;39.012;-7.064;2022-08-23T03:01:47;11.05;;;6.78;;
60239;SDS011;46102;39.012;-7.064;2022-08-23T03:06:06;9.20;;;5.72;;
60239;SDS011;46102;39.012;-7.064;2022-08-23T03:08:07;10.75;;;6.10;;
60239;SDS011;46102;39.012;-7.064;2022-08-23T03:10:18;8.57;;;5.32;;
60239;SDS011;46102;39.012;-7.064;2022-08-23T03:12:27;11.00;;;6.20;;
60239;SDS011;46102;39.012;-7.064;2022-08-23T03:14:29;9.05;;;5.97;;
60239;SDS011;46102;39.012;-7.064;2022-08-23T03:16:30;7.90;;;5.57;;
60239;SDS011;46102;39.012;-7.064;2022-08-23T03:18:31;13.30;;;5.70;;
60239;SDS011;46102;39.012;-7.064;2022-08-23T03:20:34;10.07;;;5.68;;
60239;SDS011;46102;39.012;-7.064;2022-08-23T03:22:36;6.85;;;5.80;;
60239;SDS011;46102;39.012;-7.064;2022-08-23T03:24:37;8.48;;;5.35;;
60239;SDS011;46102;39.012;-7.064;2022-08-23T03:26:41;11.57;;;6.43;;
60239;SDS011;46102;39.012;-7.064;2022-08-23T03:28:46;10.43;;;6.30;;
60239;SDS011;46102;39.012;-7.064;2022-08-23T03:30:47;7.75;;;5.93;;
60239;SDS011;46102;39.012;-7.064;2022-08-23T03:32:48;11.05;;;8.55;;
60239;SDS011;46102;39.012;-7.064;2022-08-23T03:34:50;17.90;;;13.55;;
60239;SDS011;46102;39.012;-7.064;2022-08-23T03:36:51;16.23;;;12.35;;
60239;SDS011;46102;39.012;-7.064;2022-08-23T03:38:52;10.75;;;9.50;;
60239;SDS011;46102;39.012;-7.064;2022-08-23T03:40:53;11.20;;;7.75;;
60239;SDS011;46102;39.012;-7.064;2022-08-23T03:42:54;13.68;;;9.10;;
60239;SDS011;46102;39.012;-7.064;2022-08-23T03:44:58;15.32;;;8.50;;
60239;SDS011;46102;39.012;-7.064;2022-08-23T03:46:59;9.85;;;8.25;;
60239;SDS011;46102;39.012;-7.064;2022-08-23T03:49:00;8.82;;;6.88;;
60239;SDS011;46102;39.012;-7.064;2022-08-23T03:51:10;10.68;;;6.93;;
60239;SDS011;46102;39.012;-7.064;2022-08-23T03:53:12;7.80;;;6.65;;
60239;SDS011;46102;39.012;-7.064;2022-08-23T03:55:14;10.48;;;6.63;;
60239;SDS011;46102;39.012;-7.064;2022-08-23T03:57:18;14.93;;;7.30;;
60239;SDS011;46102;39.012;-7.064;2022-08-23T03:59:19;16.00;;;6.78;;
60239;SDS011;46102;39.012;-7.064;2022-08-23T04:01:20;10.15;;;5.97;;
60239;SDS011;46102;39.012;-7.064;2022-08-23T04:03:23;7.63;;;5.18;;
60239;SDS011;46102;39.012;-7.064;2022-08-23T04:05:35;7.78;;;5.65;;
60239;SDS011;46102;39.012;-7.064;2022-08-23T04:07:39;7.30;;;5.10;;
60239;SDS011;46102;39.012;-7.064;2022-08-23T04:09:40;6.55;;;5.57;;
60239;SDS011;46102;39.012;-7.064;2022-08-23T04:11:41;8.45;;;5.28;;
60239;SDS011;46102;39.012;-7.064;2022-08-23T04:13:42;8.13;;;5.63;;
60239;SDS011;46102;39.012;-7.064;2022-08-23T04:15:45;9.30;;;5.70;;
60239;SDS011;46102;39.012;-7.064;2022-08-23T04:17:45;5.85;;;5.15;;
60239;SDS011;46102;39.012;-7.064;2022-08-23T04:19:47;7.35;;;5.00;;
60239;SDS011;46102;39.012;-7.064;2022-08-23T04:21:49;6.55;;;5.18;;
60239;SDS011;46102;39.012;-7.064;2022-08-23T04:23:51;7.72;;;4.88;;
60239;SDS011;46102;39.012;-7.064;2022-08-23T04:25:53;5.35;;;4.38;;
60239;SDS011;46102;39.012;-7.064;2022-08-23T04:27:54;12.00;;;4.80;;
60239;SDS011;46102;39.012;-7.064;2022-08-23T04:29:56;13.07;;;4.07;;
60239;SDS011;46102;39.012;-7.064;2022-08-23T04:31:59;7.32;;;4.40;;
60239;SDS011;46102;39.012;-7.064;2022-08-23T04:34:00;6.05;;;3.70;;
60239;SDS011;46102;39.012;-7.064;2022-08-23T04:36:02;5.60;;;3.75;;
60239;SDS011;46102;39.012;-7.064;2022-08-23T04:38:03;8.88;;;4.53;;
60239;SDS011;46102;39.012;-7.064;2022-08-23T04:40:04;4.05;;;3.67;;
60239;SDS011;46102;39.012;-7.064;2022-08-23T04:42:25;6.60;;;4.55;;
60239;SDS011;46102;39.012;-7.064;2022-08-23T04:44:27;8.63;;;3.80;;
60239;SDS011;46102;39.012;-7.064;2022-08-23T04:46:30;7.72;;;3.50;;
60239;SDS011;46102;39.012;-7.064;2022-08-23T04:50:35;6.15;;;3.58;;
60239;SDS011;46102;39.012;-7.064;2022-08-23T04:52:46;4.22;;;3.70;;
60239;SDS011;46102;39.012;-7.064;2022-08-23T04:54:47;9.80;;;4.40;;
60239;SDS011;46102;39.012;-7.064;2022-08-23T04:57:15;10.75;;;4.30;;
60239;SDS011;46102;39.012;-7.064;2022-08-23T04:59:18;5.22;;;3.80;;
60239;SDS011;46102;39.012;-7.064;2022-08-23T05:01:19;10.32;;;4.43;;
60239;SDS011;46102;39.012;-7.064;2022-08-23T05:03:21;9.50;;;4.45;;
60239;SDS011;46102;39.012;-7.064;2022-08-23T05:05:22;7.10;;;4.40;;
60239;SDS011;46102;39.012;-7.064;2022-08-23T05:07:23;4.63;;;4.15;;
60239;SDS011;46102;39.012;-7.064;2022-08-23T05:09:24;7.82;;;4.45;;
60239;SDS011;46102;39.012;-7.064;2022-08-23T05:11:26;6.55;;;4.60;;
60239;SDS011;46102;39.012;-7.064;2022-08-23T05:13:28;7.80;;;4.25;;
60239;SDS011;46102;39.012;-7.064;2022-08-23T05:15:29;6.25;;;4.10;;
60239;SDS011;46102;39.012;-7.064;2022-08-23T05:17:37;7.43;;;3.97;;
60239;SDS011;46102;39.012;-7.064;2022-08-23T05:19:38;7.72;;;4.13;;
60239;SDS011;46102;39.012;-7.064;2022-08-23T05:21:39;7.40;;;4.07;;
60239;SDS011;46102;39.012;-7.064;2022-08-23T05:23:40;5.60;;;3.80;;
60239;SDS011;46102;39.012;-7.064;2022-08-23T05:25:48;9.45;;;4.07;;
60239;SDS011;46102;39.012;-7.064;2022-08-23T05:27:54;6.85;;;3.75;;
60239;SDS011;46102;39.012;-7.064;2022-08-23T05:29:56;6.22;;;4.30;;
60239;SDS011;46102;39.012;-7.064;2022-08-23T05:31:57;9.60;;;3.95;;
60239;SDS011;46102;39.012;-7.064;2022-08-23T05:33:59;8.27;;;4.20;;
60239;SDS011;46102;39.012;-7.064;2022-08-23T05:36:13;7.93;;;4.03;;
60239;SDS011;46102;39.012;-7.064;2022-08-23T05:38:15;7.90;;;3.83;;
60239;SDS011;46102;39.012;-7.064;2022-08-23T05:40:16;5.47;;;4.15;;
60239;SDS011;46102;39.012;-7.064;2022-08-23T05:44:31;5.25;;;4.03;;
60239;SDS011;46102;39.012;-7.064;2022-08-23T05:46:32;7.03;;;4.28;;
60239;SDS011;46102;39.012;-7.064;2022-08-23T05:48:51;6.05;;;4.07;;
60239;SDS011;46102;39.012;-7.064;2022-08-23T05:50:55;8.80;;;3.85;;
60239;SDS011;46102;39.012;-7.064;2022-08-23T05:52:56;5.80;;;3.88;;
60239;SDS011;46102;39.012;-7.064;2022-08-23T05:54:57;5.65;;;4.18;;
60239;SDS011;46102;39.012;-7.064;2022-08-23T05:57:18;5.53;;;4.53;;
60239;SDS011;46102;39.012;-7.064;2022-08-23T05:59:19;8.77;;;3.90;;
60239;SDS011;46102;39.012;-7.064;2022-08-23T06:01:20;7.30;;;4.80;;
60239;SDS011;46102;39.012;-7.064;2022-08-23T06:03:23;5.97;;;3.67;;
60239;SDS011;46102;39.012;-7.064;2022-08-23T06:05:25;7.38;;;4.10;;
60239;SDS011;46102;39.012;-7.064;2022-08-23T06:07:26;9.52;;;4.20;;
60239;SDS011;46102;39.012;-7.064;2022-08-23T06:09:27;8.32;;;3.20;;
60239;SDS011;46102;39.012;-7.064;2022-08-23T06:11:28;7.78;;;3.92;;
60239;SDS011;46102;39.012;-7.064;2022-08-23T06:13:29;5.50;;;3.50;;
60239;SDS011;46102;39.012;-7.064;2022-08-23T06:15:30;10.13;;;3.70;;
60239;SDS011;46102;39.012;-7.064;2022-08-23T06:17:32;8.35;;;4.28;;
60239;SDS011;46102;39.012;-7.064;2022-08-23T06:19:33;8.57;;;4.03;;
60239;SDS011;46102;39.012;-7.064;2022-08-23T06:21:43;10.45;;;3.90;;
60239;SDS011;46102;39.012;-7.064;2022-08-23T06:23:44;4.97;;;4.20;;
60239;SDS011;46102;39.012;-7.064;2022-08-23T06:25:49;12.80;;;4.45;;
60239;SDS011;46102;39.012;-7.064;2022-08-23T06:27:52;19.93;;;4.47;;
60239;SDS011;46102;39.012;-7.064;2022-08-23T06:29:53;9.15;;;4.20;;
60239;SDS011;46102;39.012;-7.064;2022-08-23T06:32:06;6.63;;;4.22;;
60239;SDS011;46102;39.012;-7.064;2022-08-23T06:34:20;5.50;;;4.03;;
60239;SDS011;46102;39.012;-7.064;2022-08-23T06:36:52;6.13;;;3.38;;
60239;SDS011;46102;39.012;-7.064;2022-08-23T06:39:16;10.10;;;4.47;;
60239;SDS011;46102;39.012;-7.064;2022-08-23T06:41:32;4.85;;;4.15;;
60239;SDS011;46102;39.012;-7.064;2022-08-23T06:43:56;7.38;;;3.70;;
60239;SDS011;46102;39.012;-7.064;2022-08-23T06:46:19;4.82;;;4.30;;
60239;SDS011;46102;39.012;-7.064;2022-08-23T06:48:22;6.63;;;4.10;;
60239;SDS011;46102;39.012;-7.064;2022-08-23T06:50:24;6.47;;;4.13;;
60239;SDS011;46102;39.012;-7.064;2022-08-23T06:52:54;7.97;;;4.07;;
60239;SDS011;46102;39.012;-7.064;2022-08-23T06:55:09;7.10;;;4.57;;
60239;SDS011;46102;39.012;-7.064;2022-08-23T06:57:15;14.68;;;5.00;;
60239;SDS011;46102;39.012;-7.064;2022-08-23T06:59:51;4.97;;;4.53;;
60239;SDS011;46102;39.012;-7.064;2022-08-23T07:02:08;4.65;;;4.18;;
60239;SDS011;46102;39.012;-7.064;2022-08-23T07:04:28;9.63;;;4.53;;
60239;SDS011;46102;39.012;-7.064;2022-08-23T07:06:42;7.07;;;5.03;;
60239;SDS011;46102;39.012;-7.064;2022-08-23T07:08:44;7.07;;;4.80;;
60239;SDS011;46102;39.012;-7.064;2022-08-23T07:10:44;10.10;;;4.95;;
60239;SDS011;46102;39.012;-7.064;2022-08-23T07:12:45;11.85;;;5.25;;
60239;SDS011;46102;39.012;-7.064;2022-08-23T07:14:51;6.55;;;4.97;;
60239;SDS011;46102;39.012;-7.064;2022-08-23T07:16:57;7.57;;;4.63;;
60239;SDS011;46102;39.012;-7.064;2022-08-23T07:18:59;9.32;;;5.40;;
60239;SDS011;46102;39.012;-7.064;2022-08-23T07:21:01;7.78;;;4.90;;
60239;SDS011;46102;39.012;-7.064;2022-08-23T07:23:03;6.57;;;5.00;;
60239;SDS011;46102;39.012;-7.064;2022-08-23T07:25:04;9.68;;;5.45;;
60239;SDS011;46102;39.012;-7.064;2022-08-23T07:27:07;6.60;;;5.18;;
60239;SDS011;46102;39.012;-7.064;2022-08-23T07:29:18;8.10;;;4.78;;
60239;SDS011;46102;39.012;-7.064;2022-08-23T07:31:22;5.90;;;5.18;;
60239;SDS011;46102;39.012;-7.064;2022-08-23T07:33:26;8.20;;;5.35;;
60239;SDS011;46102;39.012;-7.064;2022-08-23T07:35:45;11.68;;;5.30;;
60239;SDS011;46102;39.012;-7.064;2022-08-23T07:37:49;8.55;;;5.18;;
60239;SDS011;46102;39.012;-7.064;2022-08-23T07:39:50;5.80;;;4.70;;
60239;SDS011;46102;39.012;-7.064;2022-08-23T07:41:50;6.90;;;4.70;;
60239;SDS011;46102;39.012;-7.064;2022-08-23T07:43:53;11.70;;;4.97;;
60239;SDS011;46102;39.012;-7.064;2022-08-23T07:45:55;11.85;;;5.07;;
60239;SDS011;46102;39.012;-7.064;2022-08-23T07:47:56;10.90;;;5.22;;
60239;SDS011;46102;39.012;-7.064;2022-08-23T07:49:59;4.97;;;4.47;;
60239;SDS011;46102;39.012;-7.064;2022-08-23T07:52:00;6.35;;;4.45;;
60239;SDS011;46102;39.012;-7.064;2022-08-23T07:54:03;7.18;;;4.53;;
60239;SDS011;46102;39.012;-7.064;2022-08-23T07:56:09;8.27;;;4.80;;
60239;SDS011;46102;39.012;-7.064;2022-08-23T07:58:29;5.70;;;4.43;;
60239;SDS011;46102;39.012;-7.064;2022-08-23T08:00:52;7.63;;;4.35;;
60239;SDS011;46102;39.012;-7.064;2022-08-23T08:03:11;8.48;;;4.93;;
60239;SDS011;46102;39.012;-7.064;2022-08-23T08:05:36;6.32;;;4.93;;
60239;SDS011;46102;39.012;-7.064;2022-08-23T08:07:37;8.15;;;4.97;;
60239;SDS011;46102;39.012;-7.064;2022-08-23T08:09:38;11.02;;;4.47;;
60239;SDS011;46102;39.012;-7.064;2022-08-23T08:11:42;10.77;;;5.22;;
60239;SDS011;46102;39.012;-7.064;2022-08-23T08:13:46;13.05;;;5.60;;
60239;SDS011;46102;39.012;-7.064;2022-08-23T08:17:52;5.38;;;3.80;;
60239;SDS011;46102;39.012;-7.064;2022-08-23T08:19:53;5.25;;;3.67;;
60239;SDS011;46102;39.012;-7.064;2022-08-23T08:22:23;12.93;;;4.57;;
60239;SDS011;46102;39.012;-7.064;2022-08-23T08:24:43;8.63;;;4.63;;
60239;SDS011;46102;39.012;-7.064;2022-08-23T08:26:46;12.50;;;4.90;;
60239;SDS011;46102;39.012;-7.064;2022-08-23T08:28:48;6.10;;;4.95;;
60239;SDS011;46102;39.012;-7.064;2022-08-23T08:30:49;4.55;;;4.22;;
60239;SDS011;46102;39.012;-7.064;2022-08-23T08:32:50;8.77;;;5.20;;
60239;SDS011;46102;39.012;-7.064;2022-08-23T08:34:53;8.23;;;4.17;;
60239;SDS011;46102;39.012;-7.064;2022-08-23T08:36:55;6.50;;;4.20;;
60239;SDS011;46102;39.012;-7.064;2022-08-23T08:38:59;8.10;;;4.80;;
60239;SDS011;46102;39.012;-7.064;2022-08-23T08:41:07;7.50;;;3.95;;
60239;SDS011;46102;39.012;-7.064;2022-08-23T08:43:23;5.53;;;4.35;;
60239;SDS011;46102;39.012;-7.064;2022-08-23T08:48:07;7.30;;;4.03;;
60239;SDS011;46102;39.012;-7.064;2022-08-23T08:50:22;7.75;;;3.90;;
60239;SDS011;46102;39.012;-7.064;2022-08-23T08:52:40;4.28;;;3.65;;
60239;SDS011;46102;39.012;-7.064;2022-08-23T08:55:00;4.90;;;3.33;;
60239;SDS011;46102;39.012;-7.064;2022-08-23T08:59:21;6.57;;;3.60;;
60239;SDS011;46102;39.012;-7.064;2022-08-23T09:01:25;4.00;;;3.65;;
60239;SDS011;46102;39.012;-7.064;2022-08-23T09:03:31;8.63;;;3.70;;
60239;SDS011;46102;39.012;-7.064;2022-08-23T09:05:37;9.70;;;3.65;;
60239;SDS011;46102;39.012;-7.064;2022-08-23T09:07:58;10.95;;;3.83;;
60239;SDS011;46102;39.012;-7.064;2022-08-23T09:10:25;10.15;;;4.13;;
60239;SDS011;46102;39.012;-7.064;2022-08-23T09:12:52;9.77;;;3.72;;
60239;SDS011;46102;39.012;-7.064;2022-08-23T09:19:35;4.60;;;3.30;;
60239;SDS011;46102;39.012;-7.064;2022-08-23T09:23:44;5.22;;;3.25;;
60239;SDS011;46102;39.012;-7.064;2022-08-23T09:25:54;11.43;;;3.78;;
60239;SDS011;46102;39.012;-7.064;2022-08-23T09:28:02;3.33;;;2.90;;
60239;SDS011;46102;39.012;-7.064;2022-08-23T09:30:04;8.45;;;3.17;;
60239;SDS011;46102;39.012;-7.064;2022-08-23T09:32:06;4.65;;;3.60;;
60239;SDS011;46102;39.012;-7.064;2022-08-23T09:36:39;5.20;;;3.22;;
60239;SDS011;46102;39.012;-7.064;2022-08-23T09:38:49;8.32;;;3.25;;
60239;SDS011;46102;39.012;-7.064;2022-08-23T09:40:58;4.60;;;3.00;;
60239;SDS011;46102;39.012;-7.064;2022-08-23T09:43:03;3.22;;;2.92;;
60239;SDS011;46102;39.012;-7.064;2022-08-23T09:45:30;14.52;;;3.58;;
60239;SDS011;46102;39.012;-7.064;2022-08-23T09:47:34;3.50;;;3.30;;
60239;SDS011;46102;39.012;-7.064;2022-08-23T09:49:45;2.92;;;2.70;;
60239;SDS011;46102;39.012;-7.064;2022-08-23T09:51:50;7.22;;;2.92;;
60239;SDS011;46102;39.012;-7.064;2022-08-23T09:56:22;3.78;;;2.58;;
60239;SDS011;46102;39.012;-7.064;2022-08-23T09:58:30;6.50;;;2.38;;
60239;SDS011;46102;39.012;-7.064;2022-08-23T10:00:40;6.53;;;2.70;;
60239;SDS011;46102;39.012;-7.064;2022-08-23T10:02:41;4.22;;;2.90;;
60239;SDS011;46102;39.012;-7.064;2022-08-23T10:04:55;5.10;;;2.63;;
60239;SDS011;46102;39.012;-7.064;2022-08-23T10:09:29;3.53;;;2.47;;
60239;SDS011;46102;39.012;-7.064;2022-08-23T10:11:34;4.53;;;2.90;;
60239;SDS011;46102;39.012;-7.064;2022-08-23T10:13:41;3.95;;;2.55;;
60239;SDS011;46102;39.012;-7.064;2022-08-23T10:16:06;2.35;;;2.15;;
60239;SDS011;46102;39.012;-7.064;2022-08-23T10:21:00;4.20;;;2.03;;
60239;SDS011;46102;39.012;-7.064;2022-08-23T10:23:13;12.70;;;2.42;;
60239;SDS011;46102;39.012;-7.064;2022-08-23T10:25:24;6.60;;;1.90;;
60239;SDS011;46102;39.012;-7.064;2022-08-23T10:39:44;11.68;;;1.73;;
60239;SDS011;46102;39.012;-7.064;2022-08-23T10:46:20;3.60;;;1.33;;
60239;SDS011;46102;39.012;-7.064;2022-08-23T10:50:31;4.28;;;1.80;;
60239;SDS011;46102;39.012;-7.064;2022-08-23T10:52:50;5.43;;;1.52;;
60239;SDS011;46102;39.012;-7.064;2022-08-23T10:54:58;5.05;;;1.58;;
60239;SDS011;46102;39.012;-7.064;2022-08-23T10:57:28;10.65;;;1.60;;
60239;SDS011;46102;39.012;-7.064;2022-08-23T10:59:34;6.30;;;1.65;;
60239;SDS011;46102;39.012;-7.064;2022-08-23T11:06:52;3.42;;;1.35;;
60239;SDS011;46102;39.012;-7.064;2022-08-23T11:08:59;9.23;;;1.50;;
60239;SDS011;46102;39.012;-7.064;2022-08-23T11:11:00;1.98;;;1.35;;
60239;SDS011;46102;39.012;-7.064;2022-08-23T11:13:17;1.45;;;1.20;;
60239;SDS011;46102;39.012;-7.064;2022-08-23T11:15:26;6.53;;;2.25;;
60239;SDS011;46102;39.012;-7.064;2022-08-23T11:19:55;1.60;;;1.50;;
60239;SDS011;46102;39.012;-7.064;2022-08-23T11:22:13;1.92;;;1.75;;
60239;SDS011;46102;39.012;-7.064;2022-08-23T11:32:41;5.28;;;1.38;;
60239;SDS011;46102;39.012;-7.064;2022-08-23T11:34:50;3.30;;;1.40;;
60239;SDS011;46102;39.012;-7.064;2022-08-23T11:55:48;3.95;;;1.73;;
60239;SDS011;46102;39.012;-7.064;2022-08-23T12:00:14;1.67;;;1.58;;
60239;SDS011;46102;39.012;-7.064;2022-08-23T12:04:43;5.65;;;1.50;;
60239;SDS011;46102;39.012;-7.064;2022-08-23T12:06:52;1.80;;;1.70;;
60239;SDS011;46102;39.012;-7.064;2022-08-23T12:09:02;4.68;;;1.60;;
60239;SDS011;46102;39.012;-7.064;2022-08-23T12:11:11;2.00;;;1.90;;
60239;SDS011;46102;39.012;-7.064;2022-08-23T12:15:17;2.40;;;1.70;;
60239;SDS011;46102;39.012;-7.064;2022-08-23T12:19:29;4.10;;;1.95;;
60239;SDS011;46102;39.012;-7.064;2022-08-23T12:21:44;6.30;;;2.00;;
60239;SDS011;46102;39.012;-7.064;2022-08-23T12:23:49;3.95;;;2.35;;
60239;SDS011;46102;39.012;-7.064;2022-08-23T12:25:59;11.15;;;2.47;;
60239;SDS011;46102;39.012;-7.064;2022-08-23T12:30:45;3.33;;;2.80;;
60239;SDS011;46102;39.012;-7.064;2022-08-23T12:33:05;3.53;;;3.15;;
60239;SDS011;46102;39.012;-7.064;2022-08-23T12:38:02;4.57;;;2.80;;
60239;SDS011;46102;39.012;-7.064;2022-08-23T12:40:06;3.30;;;3.10;;
60239;SDS011;46102;39.012;-7.064;2022-08-23T12:42:12;3.78;;;3.17;;
60239;SDS011;46102;39.012;-7.064;2022-08-23T12:44:20;8.57;;;2.78;;
60239;SDS011;46102;39.012;-7.064;2022-08-23T12:48:44;3.60;;;2.25;;
60239;SDS011;46102;39.012;-7.064;2022-08-23T12:50:53;2.45;;;2.10;;
60239;SDS011;46102;39.012;-7.064;2022-08-23T12:53:07;6.05;;;2.70;;
60239;SDS011;46102;39.012;-7.064;2022-08-23T12:55:13;2.10;;;2.00;;
60239;SDS011;46102;39.012;-7.064;2022-08-23T12:57:18;2.70;;;2.50;;
60239;SDS011;46102;39.012;-7.064;2022-08-23T13:01:37;5.50;;;2.85;;
60239;SDS011;46102;39.012;-7.064;2022-08-23T13:03:42;2.97;;;2.78;;
60239;SDS011;46102;39.012;-7.064;2022-08-23T13:05:46;2.85;;;2.65;;
60239;SDS011;46102;39.012;-7.064;2022-08-23T13:07:52;10.45;;;2.63;;
60239;SDS011;46102;39.012;-7.064;2022-08-23T13:09:53;4.20;;;2.40;;
60239;SDS011;46102;39.012;-7.064;2022-08-23T13:11:56;2.97;;;2.10;;
60239;SDS011;46102;39.012;-7.064;2022-08-23T13:13:58;2.15;;;1.98;;
60239;SDS011;46102;39.012;-7.064;2022-08-23T13:16:01;5.95;;;2.22;;
60239;SDS011;46102;39.012;-7.064;2022-08-23T13:18:22;2.08;;;1.88;;
60239;SDS011;46102;39.012;-7.064;2022-08-23T13:20:24;2.23;;;2.10;;
60239;SDS011;46102;39.012;-7.064;2022-08-23T13:22:25;2.35;;;1.80;;
60239;SDS011;46102;39.012;-7.064;2022-08-23T13:26:39;3.47;;;1.73;;
60239;SDS011;46102;39.012;-7.064;2022-08-23T13:28:49;3.72;;;1.85;;
60239;SDS011;46102;39.012;-7.064;2022-08-23T13:31:12;3.85;;;2.10;;
60239;SDS011;46102;39.012;-7.064;2022-08-23T13:37:35;3.65;;;1.70;;
60239;SDS011;46102;39.012;-7.064;2022-08-23T13:39:45;1.98;;;1.83;;
60239;SDS011;46102;39.012;-7.064;2022-08-23T13:41:48;2.88;;;1.90;;
60239;SDS011;46102;39.012;-7.064;2022-08-23T13:43:49;1.80;;;1.60;;
60239;SDS011;46102;39.012;-7.064;2022-08-23T13:45:52;3.90;;;1.90;;
60239;SDS011;46102;39.012;-7.064;2022-08-23T13:50:25;2.45;;;1.40;;
60239;SDS011;46102;39.012;-7.064;2022-08-23T13:52:29;1.60;;;1.30;;
60239;SDS011;46102;39.012;-7.064;2022-08-23T13:54:30;1.98;;;1.73;;
60239;SDS011;46102;39.012;-7.064;2022-08-23T13:56:34;1.65;;;1.55;;
60239;SDS011;46102;39.012;-7.064;2022-08-23T13:58:56;4.45;;;2.20;;
60239;SDS011;46102;39.012;-7.064;2022-08-23T14:01:00;1.40;;;1.30;;
60239;SDS011;46102;39.012;-7.064;2022-08-23T14:03:03;2.53;;;1.40;;
60239;SDS011;46102;39.012;-7.064;2022-08-23T14:05:04;1.10;;;1.00;;
60239;SDS011;46102;39.012;-7.064;2022-08-23T14:07:07;6.15;;;1.30;;
60239;SDS011;46102;39.012;-7.064;2022-08-23T14:09:08;1.98;;;1.52;;
60239;SDS011;46102;39.012;-7.064;2022-08-23T14:11:09;1.45;;;1.35;;
60239;SDS011;46102;39.012;-7.064;2022-08-23T14:13:15;1.45;;;1.35;;
60239;SDS011;46102;39.012;-7.064;2022-08-23T14:15:18;1.80;;;1.10;;
60239;SDS011;46102;39.012;-7.064;2022-08-23T14:17:19;3.47;;;1.55;;
60239;SDS011;46102;39.012;-7.064;2022-08-23T14:19:21;4.03;;;1.33;;
60239;SDS011;46102;39.012;-7.064;2022-08-23T14:21:22;2.10;;;1.40;;
60239;SDS011;46102;39.012;-7.064;2022-08-23T14:23:23;1.20;;;1.20;;
60239;SDS011;46102;39.012;-7.064;2022-08-23T14:25:24;1.20;;;1.20;;
60239;SDS011;46102;39.012;-7.064;2022-08-23T14:27:25;2.22;;;1.50;;
60239;SDS011;46102;39.012;-7.064;2022-08-23T14:29:26;8.23;;;1.13;;